sensor_id;sensor_type;location;lat;lon;timestamp;P1;durP1;ratioP1;P2;durP2;ratioP2
4452;SDS011;2239;48.152;11.584;2023-07-09T00:00:36;7.37;;;4.13;;
4452;SDS011;2239;48.152;11.584;2023-07-09T00:03:02;6.67;;;3.80;;
4452;SDS011;2239;48.152;11.584;2023-07-09T00:05:27;6.67;;;4.00;;
4452;SDS011;2239;48.152;11.584;2023-07-09T00:07:53;10.93;;;4.20;;
4452;SDS011;2239;48.152;11.584;2023-07-09T00:10:19;10.27;;;4.40;;
4452;SDS011;2239;48.152;11.584;2023-07-09T00:12:46;10.73;;;4.03;;
4452;SDS011;2239;48.152;11.584;2023-07-09T00:15:12;7.10;;;3.70;;
4452;SDS011;2239;48.152;11.584;2023-07-09T00:17:41;14.03;;;3.73;;
4452;SDS011;2239;48.152;11.584;2023-07-09T00:20:10;8.23;;;3.87;;
4452;SDS011;2239;48.152;11.584;2023-07-09T00:22:41;7.07;;;3.60;;
4452;SDS011;2239;48.152;11.584;2023-07-09T00:25:17;7.83;;;3.90;;
4452;SDS011;2239;48.152;11.584;2023-07-09T00:27:44;6.23;;;3.90;;
4452;SDS011;2239;48.152;11.584;2023-07-09T00:30:17;8.43;;;4.13;;
4452;SDS011;2239;48.152;11.584;2023-07-09T00:32:47;7.33;;;3.73;;
4452;SDS011;2239;48.152;11.584;2023-07-09T00:35:13;11.10;;;4.13;;
4452;SDS011;2239;48.152;11.584;2023-07-09T00:37:40;7.00;;;3.33;;
4452;SDS011;2239;48.152;11.584;2023-07-09T00:40:18;8.13;;;3.40;;
4452;SDS011;2239;48.152;11.584;2023-07-09T00:42:46;8.10;;;3.70;;
4452;SDS011;2239;48.152;11.584;2023-07-09T00:45:17;6.20;;;3.20;;
4452;SDS011;2239;48.152;11.584;2023-07-09T00:53:19;6.27;;;3.27;;
4452;SDS011;2239;48.152;11.584;2023-07-09T00:55:54;8.30;;;3.50;;
4452;SDS011;2239;48.152;11.584;2023-07-09T00:58:29;7.77;;;3.47;;
4452;SDS011;2239;48.152;11.584;2023-07-09T01:00:59;8.43;;;4.00;;
4452;SDS011;2239;48.152;11.584;2023-07-09T01:05:59;12.03;;;3.80;;
4452;SDS011;2239;48.152;11.584;2023-07-09T01:08:26;6.57;;;3.27;;
4452;SDS011;2239;48.152;11.584;2023-07-09T01:10:55;6.53;;;3.43;;
4452;SDS011;2239;48.152;11.584;2023-07-09T01:13:23;4.50;;;2.83;;
4452;SDS011;2239;48.152;11.584;2023-07-09T01:15:51;6.50;;;3.13;;
4452;SDS011;2239;48.152;11.584;2023-07-09T01:18:16;5.60;;;3.40;;
4452;SDS011;2239;48.152;11.584;2023-07-09T01:20:42;10.30;;;3.63;;
4452;SDS011;2239;48.152;11.584;2023-07-09T01:23:08;6.27;;;3.10;;
4452;SDS011;2239;48.152;11.584;2023-07-09T01:25:36;6.57;;;3.53;;
4452;SDS011;2239;48.152;11.584;2023-07-09T01:28:05;7.33;;;3.97;;
4452;SDS011;2239;48.152;11.584;2023-07-09T01:30:33;7.10;;;3.30;;
4452;SDS011;2239;48.152;11.584;2023-07-09T01:33:01;6.47;;;2.93;;
4452;SDS011;2239;48.152;11.584;2023-07-09T01:35:28;9.07;;;3.63;;
4452;SDS011;2239;48.152;11.584;2023-07-09T01:37:56;7.03;;;3.50;;
4452;SDS011;2239;48.152;11.584;2023-07-09T01:40:23;4.77;;;2.80;;
4452;SDS011;2239;48.152;11.584;2023-07-09T01:42:56;7.83;;;3.30;;
4452;SDS011;2239;48.152;11.584;2023-07-09T01:45:25;12.00;;;3.50;;
4452;SDS011;2239;48.152;11.584;2023-07-09T01:47:51;7.43;;;3.20;;
4452;SDS011;2239;48.152;11.584;2023-07-09T01:50:20;6.40;;;3.37;;
4452;SDS011;2239;48.152;11.584;2023-07-09T01:52:46;8.20;;;3.23;;
4452;SDS011;2239;48.152;11.584;2023-07-09T01:55:14;9.73;;;3.70;;
4452;SDS011;2239;48.152;11.584;2023-07-09T01:57:41;8.33;;;3.60;;
4452;SDS011;2239;48.152;11.584;2023-07-09T02:00:08;7.67;;;3.57;;
4452;SDS011;2239;48.152;11.584;2023-07-09T02:02:36;7.80;;;4.03;;
4452;SDS011;2239;48.152;11.584;2023-07-09T02:05:04;9.13;;;4.07;;
4452;SDS011;2239;48.152;11.584;2023-07-09T02:07:30;6.80;;;4.03;;
4452;SDS011;2239;48.152;11.584;2023-07-09T02:09:57;6.80;;;2.80;;
4452;SDS011;2239;48.152;11.584;2023-07-09T02:12:23;5.13;;;3.10;;
4452;SDS011;2239;48.152;11.584;2023-07-09T02:14:49;9.83;;;3.43;;
4452;SDS011;2239;48.152;11.584;2023-07-09T02:17:15;9.30;;;3.47;;
4452;SDS011;2239;48.152;11.584;2023-07-09T02:19:41;6.17;;;2.83;;
4452;SDS011;2239;48.152;11.584;2023-07-09T02:22:07;6.50;;;2.83;;
4452;SDS011;2239;48.152;11.584;2023-07-09T02:24:33;4.93;;;3.00;;
4452;SDS011;2239;48.152;11.584;2023-07-09T02:27:01;7.80;;;3.27;;
4452;SDS011;2239;48.152;11.584;2023-07-09T02:29:29;6.07;;;2.60;;
4452;SDS011;2239;48.152;11.584;2023-07-09T02:31:55;8.30;;;3.30;;
4452;SDS011;2239;48.152;11.584;2023-07-09T02:34:25;4.37;;;2.87;;
4452;SDS011;2239;48.152;11.584;2023-07-09T02:36:52;9.47;;;3.20;;
4452;SDS011;2239;48.152;11.584;2023-07-09T02:39:18;4.80;;;2.97;;
4452;SDS011;2239;48.152;11.584;2023-07-09T02:41:44;5.87;;;3.63;;
4452;SDS011;2239;48.152;11.584;2023-07-09T02:44:10;5.07;;;3.10;;
4452;SDS011;2239;48.152;11.584;2023-07-09T02:46:36;6.17;;;2.90;;
4452;SDS011;2239;48.152;11.584;2023-07-09T02:49:05;5.00;;;2.60;;
4452;SDS011;2239;48.152;11.584;2023-07-09T02:51:31;7.70;;;3.27;;
4452;SDS011;2239;48.152;11.584;2023-07-09T02:53:58;6.80;;;3.37;;
4452;SDS011;2239;48.152;11.584;2023-07-09T02:56:24;5.37;;;3.00;;
4452;SDS011;2239;48.152;11.584;2023-07-09T02:58:50;5.90;;;2.80;;
4452;SDS011;2239;48.152;11.584;2023-07-09T03:01:16;6.47;;;3.30;;
4452;SDS011;2239;48.152;11.584;2023-07-09T03:03:42;4.20;;;2.80;;
4452;SDS011;2239;48.152;11.584;2023-07-09T03:06:08;6.50;;;3.00;;
4452;SDS011;2239;48.152;11.584;2023-07-09T03:08:34;7.53;;;3.23;;
4452;SDS011;2239;48.152;11.584;2023-07-09T03:11:00;5.23;;;3.07;;
4452;SDS011;2239;48.152;11.584;2023-07-09T03:13:32;5.50;;;2.93;;
4452;SDS011;2239;48.152;11.584;2023-07-09T03:15:58;7.17;;;3.20;;
4452;SDS011;2239;48.152;11.584;2023-07-09T03:18:24;5.17;;;3.10;;
4452;SDS011;2239;48.152;11.584;2023-07-09T03:20:50;5.47;;;3.10;;
4452;SDS011;2239;48.152;11.584;2023-07-09T03:23:16;5.80;;;2.83;;
4452;SDS011;2239;48.152;11.584;2023-07-09T03:25:42;5.80;;;2.90;;
4452;SDS011;2239;48.152;11.584;2023-07-09T03:28:08;6.50;;;3.20;;
4452;SDS011;2239;48.152;11.584;2023-07-09T03:30:33;4.57;;;2.80;;
4452;SDS011;2239;48.152;11.584;2023-07-09T03:32:59;8.20;;;3.00;;
4452;SDS011;2239;48.152;11.584;2023-07-09T03:35:25;4.53;;;2.50;;
4452;SDS011;2239;48.152;11.584;2023-07-09T03:37:51;6.33;;;3.07;;
4452;SDS011;2239;48.152;11.584;2023-07-09T03:40:23;4.90;;;2.60;;
4452;SDS011;2239;48.152;11.584;2023-07-09T03:42:48;4.00;;;2.60;;
4452;SDS011;2239;48.152;11.584;2023-07-09T03:45:14;9.33;;;3.47;;
4452;SDS011;2239;48.152;11.584;2023-07-09T03:47:40;5.30;;;2.73;;
4452;SDS011;2239;48.152;11.584;2023-07-09T03:50:08;6.30;;;3.13;;
4452;SDS011;2239;48.152;11.584;2023-07-09T03:52:35;5.83;;;2.70;;
4452;SDS011;2239;48.152;11.584;2023-07-09T03:55:00;4.93;;;3.10;;
4452;SDS011;2239;48.152;11.584;2023-07-09T03:57:29;4.73;;;2.60;;
4452;SDS011;2239;48.152;11.584;2023-07-09T03:59:58;4.17;;;3.07;;
4452;SDS011;2239;48.152;11.584;2023-07-09T04:02:23;5.77;;;2.93;;
4452;SDS011;2239;48.152;11.584;2023-07-09T04:04:49;5.27;;;3.10;;
4452;SDS011;2239;48.152;11.584;2023-07-09T04:07:15;5.70;;;3.20;;
4452;SDS011;2239;48.152;11.584;2023-07-09T04:09:41;5.60;;;2.77;;
4452;SDS011;2239;48.152;11.584;2023-07-09T04:12:07;7.60;;;3.37;;
4452;SDS011;2239;48.152;11.584;2023-07-09T04:14:34;6.63;;;3.33;;
4452;SDS011;2239;48.152;11.584;2023-07-09T04:17:00;6.20;;;3.03;;
4452;SDS011;2239;48.152;11.584;2023-07-09T04:19:25;3.77;;;2.67;;
4452;SDS011;2239;48.152;11.584;2023-07-09T04:21:51;6.97;;;3.10;;
4452;SDS011;2239;48.152;11.584;2023-07-09T04:24:17;6.43;;;2.83;;
4452;SDS011;2239;48.152;11.584;2023-07-09T04:26:43;4.30;;;2.60;;
4452;SDS011;2239;48.152;11.584;2023-07-09T04:29:09;4.93;;;2.63;;
4452;SDS011;2239;48.152;11.584;2023-07-09T04:31:35;5.03;;;2.50;;
4452;SDS011;2239;48.152;11.584;2023-07-09T04:34:01;12.67;;;3.20;;
4452;SDS011;2239;48.152;11.584;2023-07-09T04:36:26;6.30;;;2.90;;
4452;SDS011;2239;48.152;11.584;2023-07-09T04:38:52;5.10;;;2.40;;
4452;SDS011;2239;48.152;11.584;2023-07-09T04:41:18;6.23;;;3.10;;
4452;SDS011;2239;48.152;11.584;2023-07-09T04:43:43;4.20;;;2.73;;
4452;SDS011;2239;48.152;11.584;2023-07-09T04:46:09;5.70;;;2.90;;
4452;SDS011;2239;48.152;11.584;2023-07-09T04:48:35;4.20;;;2.60;;
4452;SDS011;2239;48.152;11.584;2023-07-09T04:51:00;6.90;;;3.30;;
4452;SDS011;2239;48.152;11.584;2023-07-09T04:53:26;7.73;;;3.60;;
4452;SDS011;2239;48.152;11.584;2023-07-09T04:55:51;4.83;;;2.20;;
4452;SDS011;2239;48.152;11.584;2023-07-09T04:58:17;8.80;;;3.50;;
4452;SDS011;2239;48.152;11.584;2023-07-09T05:00:44;5.40;;;2.70;;
4452;SDS011;2239;48.152;11.584;2023-07-09T05:03:10;5.70;;;3.10;;
4452;SDS011;2239;48.152;11.584;2023-07-09T05:05:41;10.77;;;3.60;;
4452;SDS011;2239;48.152;11.584;2023-07-09T05:08:11;4.70;;;2.77;;
4452;SDS011;2239;48.152;11.584;2023-07-09T05:10:41;6.17;;;3.20;;
4452;SDS011;2239;48.152;11.584;2023-07-09T05:13:16;5.27;;;2.80;;
4452;SDS011;2239;48.152;11.584;2023-07-09T05:15:45;5.93;;;2.83;;
4452;SDS011;2239;48.152;11.584;2023-07-09T05:18:15;4.50;;;2.30;;
4452;SDS011;2239;48.152;11.584;2023-07-09T05:20:41;7.33;;;2.90;;
4452;SDS011;2239;48.152;11.584;2023-07-09T05:23:09;6.90;;;2.73;;
4452;SDS011;2239;48.152;11.584;2023-07-09T05:25:36;3.70;;;2.40;;
4452;SDS011;2239;48.152;11.584;2023-07-09T05:28:02;3.63;;;2.50;;
4452;SDS011;2239;48.152;11.584;2023-07-09T05:30:28;5.33;;;2.80;;
4452;SDS011;2239;48.152;11.584;2023-07-09T05:32:54;12.73;;;2.97;;
4452;SDS011;2239;48.152;11.584;2023-07-09T05:35:22;4.17;;;3.00;;
4452;SDS011;2239;48.152;11.584;2023-07-09T05:37:54;4.03;;;2.73;;
4452;SDS011;2239;48.152;11.584;2023-07-09T05:40:30;4.50;;;3.00;;
4452;SDS011;2239;48.152;11.584;2023-07-09T05:42:56;4.63;;;2.70;;
4452;SDS011;2239;48.152;11.584;2023-07-09T05:45:22;5.03;;;2.73;;
4452;SDS011;2239;48.152;11.584;2023-07-09T05:47:47;5.57;;;2.83;;
4452;SDS011;2239;48.152;11.584;2023-07-09T05:50:13;5.27;;;2.80;;
4452;SDS011;2239;48.152;11.584;2023-07-09T05:52:38;5.47;;;2.60;;
4452;SDS011;2239;48.152;11.584;2023-07-09T05:55:04;5.90;;;2.70;;
4452;SDS011;2239;48.152;11.584;2023-07-09T05:57:30;4.47;;;2.63;;
4452;SDS011;2239;48.152;11.584;2023-07-09T05:59:56;5.10;;;2.80;;
4452;SDS011;2239;48.152;11.584;2023-07-09T06:02:22;4.40;;;2.97;;
4452;SDS011;2239;48.152;11.584;2023-07-09T06:04:47;5.13;;;2.63;;
4452;SDS011;2239;48.152;11.584;2023-07-09T06:07:16;5.63;;;2.70;;
4452;SDS011;2239;48.152;11.584;2023-07-09T06:09:43;4.90;;;2.27;;
4452;SDS011;2239;48.152;11.584;2023-07-09T06:12:10;6.97;;;3.03;;
4452;SDS011;2239;48.152;11.584;2023-07-09T06:14:36;3.50;;;2.70;;
4452;SDS011;2239;48.152;11.584;2023-07-09T06:17:02;3.87;;;2.50;;
4452;SDS011;2239;48.152;11.584;2023-07-09T06:19:27;4.77;;;2.40;;
4452;SDS011;2239;48.152;11.584;2023-07-09T06:21:53;5.83;;;2.60;;
4452;SDS011;2239;48.152;11.584;2023-07-09T06:24:18;5.87;;;2.73;;
4452;SDS011;2239;48.152;11.584;2023-07-09T06:26:44;5.87;;;2.70;;
4452;SDS011;2239;48.152;11.584;2023-07-09T06:29:10;4.83;;;2.57;;
4452;SDS011;2239;48.152;11.584;2023-07-09T06:31:35;3.27;;;2.20;;
4452;SDS011;2239;48.152;11.584;2023-07-09T06:34:02;3.60;;;2.53;;
4452;SDS011;2239;48.152;11.584;2023-07-09T06:36:28;3.43;;;2.20;;
4452;SDS011;2239;48.152;11.584;2023-07-09T06:38:54;3.37;;;2.07;;
4452;SDS011;2239;48.152;11.584;2023-07-09T06:41:19;3.73;;;2.13;;
4452;SDS011;2239;48.152;11.584;2023-07-09T06:43:45;6.60;;;2.70;;
4452;SDS011;2239;48.152;11.584;2023-07-09T06:46:12;2.80;;;2.00;;
4452;SDS011;2239;48.152;11.584;2023-07-09T06:48:39;3.33;;;2.00;;
4452;SDS011;2239;48.152;11.584;2023-07-09T06:51:05;4.80;;;2.40;;
4452;SDS011;2239;48.152;11.584;2023-07-09T06:53:31;4.53;;;2.50;;
4452;SDS011;2239;48.152;11.584;2023-07-09T06:55:56;3.37;;;1.97;;
4452;SDS011;2239;48.152;11.584;2023-07-09T06:58:24;2.93;;;2.10;;
4452;SDS011;2239;48.152;11.584;2023-07-09T07:00:53;2.70;;;1.83;;
4452;SDS011;2239;48.152;11.584;2023-07-09T07:03:20;2.40;;;1.73;;
4452;SDS011;2239;48.152;11.584;2023-07-09T07:05:48;7.90;;;2.57;;
4452;SDS011;2239;48.152;11.584;2023-07-09T07:08:15;5.13;;;2.47;;
4452;SDS011;2239;48.152;11.584;2023-07-09T07:10:42;3.53;;;2.03;;
4452;SDS011;2239;48.152;11.584;2023-07-09T07:13:08;3.33;;;2.30;;
4452;SDS011;2239;48.152;11.584;2023-07-09T07:15:36;3.77;;;1.97;;
4452;SDS011;2239;48.152;11.584;2023-07-09T07:18:03;2.77;;;1.70;;
4452;SDS011;2239;48.152;11.584;2023-07-09T07:20:29;4.57;;;2.33;;
4452;SDS011;2239;48.152;11.584;2023-07-09T07:22:55;4.00;;;2.40;;
4452;SDS011;2239;48.152;11.584;2023-07-09T07:25:22;3.03;;;2.10;;
4452;SDS011;2239;48.152;11.584;2023-07-09T07:27:48;4.10;;;2.17;;
4452;SDS011;2239;48.152;11.584;2023-07-09T07:30:14;5.60;;;2.70;;
4452;SDS011;2239;48.152;11.584;2023-07-09T07:32:46;2.53;;;2.00;;
4452;SDS011;2239;48.152;11.584;2023-07-09T07:35:13;3.40;;;2.23;;
4452;SDS011;2239;48.152;11.584;2023-07-09T07:37:40;2.50;;;2.00;;
4452;SDS011;2239;48.152;11.584;2023-07-09T07:40:06;2.70;;;2.00;;
4452;SDS011;2239;48.152;11.584;2023-07-09T07:42:33;3.30;;;2.17;;
4452;SDS011;2239;48.152;11.584;2023-07-09T07:44:58;4.67;;;2.27;;
4452;SDS011;2239;48.152;11.584;2023-07-09T07:47:24;6.00;;;2.20;;
4452;SDS011;2239;48.152;11.584;2023-07-09T07:49:52;3.10;;;2.33;;
4452;SDS011;2239;48.152;11.584;2023-07-09T07:52:17;3.83;;;2.90;;
4452;SDS011;2239;48.152;11.584;2023-07-09T07:54:43;8.20;;;2.50;;
4452;SDS011;2239;48.152;11.584;2023-07-09T07:57:08;3.37;;;2.53;;
4452;SDS011;2239;48.152;11.584;2023-07-09T07:59:35;3.77;;;2.40;;
4452;SDS011;2239;48.152;11.584;2023-07-09T08:02:01;3.50;;;2.30;;
4452;SDS011;2239;48.152;11.584;2023-07-09T08:04:27;3.30;;;2.20;;
4452;SDS011;2239;48.152;11.584;2023-07-09T08:06:53;3.83;;;2.40;;
4452;SDS011;2239;48.152;11.584;2023-07-09T08:09:19;3.77;;;2.17;;
4452;SDS011;2239;48.152;11.584;2023-07-09T08:11:45;3.10;;;2.10;;
4452;SDS011;2239;48.152;11.584;2023-07-09T08:14:10;3.77;;;2.57;;
4452;SDS011;2239;48.152;11.584;2023-07-09T08:16:36;4.30;;;2.30;;
4452;SDS011;2239;48.152;11.584;2023-07-09T08:19:02;4.00;;;2.40;;
4452;SDS011;2239;48.152;11.584;2023-07-09T08:21:28;4.60;;;2.67;;
4452;SDS011;2239;48.152;11.584;2023-07-09T08:23:53;4.97;;;2.73;;
4452;SDS011;2239;48.152;11.584;2023-07-09T08:26:19;5.43;;;2.77;;
4452;SDS011;2239;48.152;11.584;2023-07-09T08:28:44;2.93;;;2.10;;
4452;SDS011;2239;48.152;11.584;2023-07-09T08:31:10;7.43;;;2.90;;
4452;SDS011;2239;48.152;11.584;2023-07-09T08:33:35;4.00;;;2.50;;
4452;SDS011;2239;48.152;11.584;2023-07-09T08:36:01;3.83;;;2.47;;
4452;SDS011;2239;48.152;11.584;2023-07-09T08:38:27;9.37;;;2.30;;
4452;SDS011;2239;48.152;11.584;2023-07-09T08:46:01;5.03;;;2.37;;
4452;SDS011;2239;48.152;11.584;2023-07-09T08:48:37;3.47;;;2.00;;
4452;SDS011;2239;48.152;11.584;2023-07-09T08:51:10;4.33;;;1.90;;
4452;SDS011;2239;48.152;11.584;2023-07-09T08:53:49;3.90;;;2.10;;
4452;SDS011;2239;48.152;11.584;2023-07-09T08:56:18;3.47;;;2.20;;
4452;SDS011;2239;48.152;11.584;2023-07-09T08:58:44;3.33;;;2.07;;
4452;SDS011;2239;48.152;11.584;2023-07-09T09:01:19;5.50;;;2.60;;
4452;SDS011;2239;48.152;11.584;2023-07-09T09:04:00;3.67;;;2.60;;
4452;SDS011;2239;48.152;11.584;2023-07-09T09:06:32;4.00;;;2.10;;
4452;SDS011;2239;48.152;11.584;2023-07-09T09:09:45;2.83;;;2.17;;
4452;SDS011;2239;48.152;11.584;2023-07-09T09:12:12;3.43;;;2.27;;
4452;SDS011;2239;48.152;11.584;2023-07-09T09:14:44;3.30;;;2.20;;
4452;SDS011;2239;48.152;11.584;2023-07-09T09:17:16;5.60;;;2.60;;
4452;SDS011;2239;48.152;11.584;2023-07-09T09:22:28;4.30;;;2.27;;
4452;SDS011;2239;48.152;11.584;2023-07-09T09:27:42;8.30;;;2.40;;
4452;SDS011;2239;48.152;11.584;2023-07-09T09:30:15;3.10;;;2.03;;
4452;SDS011;2239;48.152;11.584;2023-07-09T09:32:43;3.77;;;2.10;;
4452;SDS011;2239;48.152;11.584;2023-07-09T09:35:12;2.90;;;2.10;;
4452;SDS011;2239;48.152;11.584;2023-07-09T09:37:40;4.93;;;2.77;;
4452;SDS011;2239;48.152;11.584;2023-07-09T09:40:08;3.43;;;2.07;;
4452;SDS011;2239;48.152;11.584;2023-07-09T09:42:34;4.33;;;2.10;;
4452;SDS011;2239;48.152;11.584;2023-07-09T09:45:00;4.00;;;2.23;;
4452;SDS011;2239;48.152;11.584;2023-07-09T09:47:26;2.50;;;2.00;;
4452;SDS011;2239;48.152;11.584;2023-07-09T09:49:53;3.73;;;2.30;;
4452;SDS011;2239;48.152;11.584;2023-07-09T09:52:18;2.90;;;1.90;;
4452;SDS011;2239;48.152;11.584;2023-07-09T09:54:54;3.33;;;2.17;;
4452;SDS011;2239;48.152;11.584;2023-07-09T09:57:22;4.13;;;2.27;;
4452;SDS011;2239;48.152;11.584;2023-07-09T09:59:49;3.93;;;2.10;;
4452;SDS011;2239;48.152;11.584;2023-07-09T10:02:19;4.70;;;2.23;;
4452;SDS011;2239;48.152;11.584;2023-07-09T10:04:47;5.53;;;2.60;;
4452;SDS011;2239;48.152;11.584;2023-07-09T10:07:35;2.77;;;2.23;;
4452;SDS011;2239;48.152;11.584;2023-07-09T10:10:02;4.03;;;2.33;;
4452;SDS011;2239;48.152;11.584;2023-07-09T10:12:46;4.17;;;2.70;;
4452;SDS011;2239;48.152;11.584;2023-07-09T10:15:18;3.20;;;2.23;;
4452;SDS011;2239;48.152;11.584;2023-07-09T10:20:42;4.50;;;2.17;;
4452;SDS011;2239;48.152;11.584;2023-07-09T10:25:48;3.73;;;2.40;;
4452;SDS011;2239;48.152;11.584;2023-07-09T10:31:00;3.83;;;2.50;;
4452;SDS011;2239;48.152;11.584;2023-07-09T10:33:46;3.57;;;2.20;;
4452;SDS011;2239;48.152;11.584;2023-07-09T10:36:33;2.80;;;2.00;;
4452;SDS011;2239;48.152;11.584;2023-07-09T10:39:24;2.80;;;1.87;;
4452;SDS011;2239;48.152;11.584;2023-07-09T10:41:57;3.63;;;2.27;;
4452;SDS011;2239;48.152;11.584;2023-07-09T10:44:32;3.00;;;1.90;;
4452;SDS011;2239;48.152;11.584;2023-07-09T10:47:02;5.73;;;2.57;;
4452;SDS011;2239;48.152;11.584;2023-07-09T10:49:33;3.33;;;2.00;;
4452;SDS011;2239;48.152;11.584;2023-07-09T10:52:13;3.63;;;2.47;;
4452;SDS011;2239;48.152;11.584;2023-07-09T10:54:54;6.63;;;2.37;;
4452;SDS011;2239;48.152;11.584;2023-07-09T10:57:34;3.70;;;2.50;;
4452;SDS011;2239;48.152;11.584;2023-07-09T11:00:24;4.20;;;2.30;;
4452;SDS011;2239;48.152;11.584;2023-07-09T11:02:59;3.53;;;2.23;;
4452;SDS011;2239;48.152;11.584;2023-07-09T11:05:28;4.27;;;2.30;;
4452;SDS011;2239;48.152;11.584;2023-07-09T11:08:10;4.70;;;2.53;;
4452;SDS011;2239;48.152;11.584;2023-07-09T11:10:59;3.73;;;2.50;;
4452;SDS011;2239;48.152;11.584;2023-07-09T11:13:31;4.10;;;2.40;;
4452;SDS011;2239;48.152;11.584;2023-07-09T11:15:58;3.40;;;2.17;;
4452;SDS011;2239;48.152;11.584;2023-07-09T11:18:32;4.93;;;1.90;;
4452;SDS011;2239;48.152;11.584;2023-07-09T11:23:26;3.13;;;2.13;;
4452;SDS011;2239;48.152;11.584;2023-07-09T11:26:14;2.90;;;2.13;;
4452;SDS011;2239;48.152;11.584;2023-07-09T11:28:56;3.53;;;2.50;;
4452;SDS011;2239;48.152;11.584;2023-07-09T11:31:34;3.20;;;2.33;;
4452;SDS011;2239;48.152;11.584;2023-07-09T11:36:32;5.60;;;2.17;;
4452;SDS011;2239;48.152;11.584;2023-07-09T11:38:59;3.23;;;1.90;;
4452;SDS011;2239;48.152;11.584;2023-07-09T11:46:34;5.87;;;2.50;;
4452;SDS011;2239;48.152;11.584;2023-07-09T11:49:04;4.67;;;2.50;;
4452;SDS011;2239;48.152;11.584;2023-07-09T11:51:38;6.83;;;2.50;;
4452;SDS011;2239;48.152;11.584;2023-07-09T11:54:10;3.00;;;2.20;;
4452;SDS011;2239;48.152;11.584;2023-07-09T11:56:38;5.00;;;2.60;;
4452;SDS011;2239;48.152;11.584;2023-07-09T11:59:04;4.93;;;2.60;;
4452;SDS011;2239;48.152;11.584;2023-07-09T12:01:38;6.43;;;2.70;;
4452;SDS011;2239;48.152;11.584;2023-07-09T12:04:12;4.30;;;2.17;;
4452;SDS011;2239;48.152;11.584;2023-07-09T12:06:39;4.23;;;2.67;;
4452;SDS011;2239;48.152;11.584;2023-07-09T12:09:05;4.23;;;2.77;;
4452;SDS011;2239;48.152;11.584;2023-07-09T12:11:33;4.57;;;2.57;;
4452;SDS011;2239;48.152;11.584;2023-07-09T12:14:10;4.17;;;2.53;;
4452;SDS011;2239;48.152;11.584;2023-07-09T12:16:40;3.23;;;2.27;;
4452;SDS011;2239;48.152;11.584;2023-07-09T12:19:11;5.67;;;2.30;;
4452;SDS011;2239;48.152;11.584;2023-07-09T12:21:38;2.83;;;2.20;;
4452;SDS011;2239;48.152;11.584;2023-07-09T12:26:42;4.07;;;2.43;;
4452;SDS011;2239;48.152;11.584;2023-07-09T12:29:08;4.13;;;2.53;;
4452;SDS011;2239;48.152;11.584;2023-07-09T12:31:35;2.60;;;2.40;;
4452;SDS011;2239;48.152;11.584;2023-07-09T12:34:01;5.27;;;2.70;;
4452;SDS011;2239;48.152;11.584;2023-07-09T12:36:27;4.57;;;2.20;;
4452;SDS011;2239;48.152;11.584;2023-07-09T12:38:55;3.77;;;2.27;;
4452;SDS011;2239;48.152;11.584;2023-07-09T12:41:34;2.80;;;2.20;;
4452;SDS011;2239;48.152;11.584;2023-07-09T12:44:02;6.13;;;3.00;;
4452;SDS011;2239;48.152;11.584;2023-07-09T12:46:28;8.20;;;2.27;;
4452;SDS011;2239;48.152;11.584;2023-07-09T12:48:54;5.33;;;2.23;;
4452;SDS011;2239;48.152;11.584;2023-07-09T12:51:22;6.10;;;2.50;;
4452;SDS011;2239;48.152;11.584;2023-07-09T12:56:42;2.93;;;2.40;;
4452;SDS011;2239;48.152;11.584;2023-07-09T12:59:21;3.47;;;2.13;;
4452;SDS011;2239;48.152;11.584;2023-07-09T13:02:37;3.60;;;2.20;;
4452;SDS011;2239;48.152;11.584;2023-07-09T13:04:42;3.30;;;2.10;;
4452;SDS011;2239;48.152;11.584;2023-07-09T13:09:49;3.27;;;2.17;;
4452;SDS011;2239;48.152;11.584;2023-07-09T13:12:19;2.90;;;2.07;;
4452;SDS011;2239;48.152;11.584;2023-07-09T13:14:52;4.10;;;2.10;;
4452;SDS011;2239;48.152;11.584;2023-07-09T13:17:19;3.70;;;2.60;;
4452;SDS011;2239;48.152;11.584;2023-07-09T13:19:45;3.47;;;2.30;;
4452;SDS011;2239;48.152;11.584;2023-07-09T13:22:12;3.77;;;2.20;;
4452;SDS011;2239;48.152;11.584;2023-07-09T13:24:39;3.93;;;2.23;;
4452;SDS011;2239;48.152;11.584;2023-07-09T13:27:07;3.17;;;2.10;;
4452;SDS011;2239;48.152;11.584;2023-07-09T13:29:37;3.23;;;2.00;;
4452;SDS011;2239;48.152;11.584;2023-07-09T13:32:07;4.73;;;2.47;;
4452;SDS011;2239;48.152;11.584;2023-07-09T13:34:37;3.13;;;2.17;;
4452;SDS011;2239;48.152;11.584;2023-07-09T13:37:04;3.93;;;2.27;;
4452;SDS011;2239;48.152;11.584;2023-07-09T13:39:30;3.93;;;2.27;;
4452;SDS011;2239;48.152;11.584;2023-07-09T13:41:56;4.43;;;2.80;;
4452;SDS011;2239;48.152;11.584;2023-07-09T13:44:26;4.40;;;2.40;;
4452;SDS011;2239;48.152;11.584;2023-07-09T13:46:54;2.90;;;2.30;;
4452;SDS011;2239;48.152;11.584;2023-07-09T13:49:21;2.63;;;1.87;;
4452;SDS011;2239;48.152;11.584;2023-07-09T13:51:49;2.33;;;2.07;;
4452;SDS011;2239;48.152;11.584;2023-07-09T13:54:21;2.70;;;2.13;;
4452;SDS011;2239;48.152;11.584;2023-07-09T13:57:06;4.17;;;2.40;;
4452;SDS011;2239;48.152;11.584;2023-07-09T13:59:36;5.03;;;2.30;;
4452;SDS011;2239;48.152;11.584;2023-07-09T14:02:01;4.83;;;2.50;;
4452;SDS011;2239;48.152;11.584;2023-07-09T14:04:27;5.63;;;2.23;;
4452;SDS011;2239;48.152;11.584;2023-07-09T14:06:53;3.37;;;2.40;;
4452;SDS011;2239;48.152;11.584;2023-07-09T14:09:20;3.27;;;2.03;;
4452;SDS011;2239;48.152;11.584;2023-07-09T14:11:50;4.50;;;2.93;;
4452;SDS011;2239;48.152;11.584;2023-07-09T14:14:18;4.20;;;2.10;;
4452;SDS011;2239;48.152;11.584;2023-07-09T14:16:49;3.80;;;2.40;;
4452;SDS011;2239;48.152;11.584;2023-07-09T14:19:16;2.77;;;2.40;;
4452;SDS011;2239;48.152;11.584;2023-07-09T14:21:44;3.13;;;1.90;;
4452;SDS011;2239;48.152;11.584;2023-07-09T14:24:21;3.93;;;2.63;;
4452;SDS011;2239;48.152;11.584;2023-07-09T14:26:52;8.00;;;2.37;;
4452;SDS011;2239;48.152;11.584;2023-07-09T14:29:20;3.33;;;2.20;;
4452;SDS011;2239;48.152;11.584;2023-07-09T14:31:47;3.10;;;2.20;;
4452;SDS011;2239;48.152;11.584;2023-07-09T14:34:16;4.60;;;2.67;;
4452;SDS011;2239;48.152;11.584;2023-07-09T14:36:45;3.87;;;2.20;;
4452;SDS011;2239;48.152;11.584;2023-07-09T14:39:11;3.20;;;2.33;;
4452;SDS011;2239;48.152;11.584;2023-07-09T14:41:37;4.23;;;2.10;;
4452;SDS011;2239;48.152;11.584;2023-07-09T14:44:05;3.50;;;2.17;;
4452;SDS011;2239;48.152;11.584;2023-07-09T14:46:39;5.60;;;2.50;;
4452;SDS011;2239;48.152;11.584;2023-07-09T14:49:06;3.60;;;2.37;;
4452;SDS011;2239;48.152;11.584;2023-07-09T14:51:32;8.10;;;2.40;;
4452;SDS011;2239;48.152;11.584;2023-07-09T14:53:57;3.20;;;2.10;;
4452;SDS011;2239;48.152;11.584;2023-07-09T14:56:23;4.50;;;2.53;;
4452;SDS011;2239;48.152;11.584;2023-07-09T14:58:49;3.57;;;2.20;;
4452;SDS011;2239;48.152;11.584;2023-07-09T15:01:14;2.20;;;1.93;;
4452;SDS011;2239;48.152;11.584;2023-07-09T15:03:40;2.53;;;1.93;;
4452;SDS011;2239;48.152;11.584;2023-07-09T15:06:06;4.17;;;2.23;;
4452;SDS011;2239;48.152;11.584;2023-07-09T15:08:31;6.73;;;2.50;;
4452;SDS011;2239;48.152;11.584;2023-07-09T15:10:58;2.70;;;1.87;;
4452;SDS011;2239;48.152;11.584;2023-07-09T15:13:29;3.70;;;2.30;;
4452;SDS011;2239;48.152;11.584;2023-07-09T15:15:57;7.20;;;2.50;;
4452;SDS011;2239;48.152;11.584;2023-07-09T15:18:24;3.40;;;2.23;;
4452;SDS011;2239;48.152;11.584;2023-07-09T15:20:51;4.30;;;2.23;;
4452;SDS011;2239;48.152;11.584;2023-07-09T15:23:19;4.53;;;2.57;;
4452;SDS011;2239;48.152;11.584;2023-07-09T15:25:47;4.83;;;2.17;;
4452;SDS011;2239;48.152;11.584;2023-07-09T15:28:14;2.87;;;2.30;;
4452;SDS011;2239;48.152;11.584;2023-07-09T15:30:40;3.77;;;2.33;;
4452;SDS011;2239;48.152;11.584;2023-07-09T15:33:08;3.40;;;2.20;;
4452;SDS011;2239;48.152;11.584;2023-07-09T15:35:38;3.13;;;2.23;;
4452;SDS011;2239;48.152;11.584;2023-07-09T15:38:09;2.93;;;2.20;;
4452;SDS011;2239;48.152;11.584;2023-07-09T15:40:46;6.30;;;2.10;;
4452;SDS011;2239;48.152;11.584;2023-07-09T15:43:13;1.97;;;1.80;;
4452;SDS011;2239;48.152;11.584;2023-07-09T15:45:42;5.43;;;2.20;;
4452;SDS011;2239;48.152;11.584;2023-07-09T15:48:26;3.57;;;1.90;;
4452;SDS011;2239;48.152;11.584;2023-07-09T15:51:00;3.67;;;2.10;;
4452;SDS011;2239;48.152;11.584;2023-07-09T15:53:26;5.20;;;2.37;;